Forside
METAR-TAF:

METAR-TAF

Lufthavne :

Maple Lake Municipal Airport

Maple Lake, Minnesota, USA

Breddekreds: 45-14-10N, længdekreds: 093-59-08W, højde: 313 m

Aktuelle vejr

Denne rapport blev lavet for 21 minutter siden, kl. 09:57 UTC
Vind stille
Temperatur 2°C
Fugtighed 100%
Tryk 1005 hPa
Sigt: 2.4 km
dis

METAR: KMGG 190957Z AUTO 00000KT 1 1/2SM BR 02/02 A2967 RMK AO2 T00160015

Tid: 04:18 (10:18 UTC)


TAF: fraværende

Vejrobservationer og prognoser fra mere end 4000 lufthavne (METAR og TAF).

De gule og røde prikker repræsenterer de meteorologiske stationer.

Flyt musen over at se navnet på stationen.

Så klik over at se vejr observationer og prognoser.

At skifte det kort: Klik på de grønne knapper med et sort kors for at zoome ind; på den grønne knap med en bindestreg for at zoome ud; eller på de grønne pile for tilstødende kort.


METAR-TAF: